createdAt,value
2017-06-02T12:16:09.600Z,1040
2017-06-02T12:22:22.943Z,104512
2017-06-02T12:23:25.541Z,103744
2017-06-02T12:24:28.145Z,100288
2017-06-02T12:25:30.765Z,96416
2017-06-02T12:26:33.366Z,93888
2017-06-02T12:27:35.977Z,91488
2017-06-02T12:28:38.523Z,89344
2017-06-02T12:29:41.209Z,90080
2017-06-02T12:30:43.817Z,93408
2017-06-02T12:31:46.508Z,97248
2017-06-02T12:32:49.128Z,99744
2017-06-02T12:33:51.823Z,101440
2017-06-02T12:34:54.370Z,101280
2017-06-02T12:35:57.793Z,99008
2017-06-02T12:37:00.366Z,95232
2017-06-02T12:38:03.093Z,92576
2017-06-02T12:39:06.603Z,92640
2017-06-02T12:40:09.360Z,95648
2017-06-02T12:41:12.046Z,99232
2017-06-02T12:42:14.830Z,101312
2017-06-02T12:43:17.565Z,101280
2017-06-02T12:44:20.286Z,99968
2017-06-02T12:45:23.080Z,96704
2017-06-02T12:46:25.802Z,91488
2017-06-02T12:47:28.496Z,87040
2017-06-02T12:48:31.094Z,85056
2017-06-02T12:49:33.697Z,84064
2017-06-02T12:50:36.392Z,83584
2017-06-02T12:51:39.209Z,87136
2017-06-02T12:52:41.809Z,91584
2017-06-02T12:53:44.447Z,96800
2017-06-02T12:54:47.114Z,103616
2017-06-02T12:55:49.727Z,110528
2017-06-02T12:56:52.302Z,111936
2017-06-02T12:57:55.058Z,106720
2017-06-02T12:58:57.659Z,110144
2017-06-02T13:00:00.265Z,101504
2017-06-02T13:01:02.857Z,93664
2017-06-02T13:02:05.431Z,84480
2017-06-02T13:03:07.993Z,76896
2017-06-02T13:04:10.570Z,77696
2017-06-02T13:05:13.146Z,86208
2017-06-02T13:06:15.758Z,94624
2017-06-02T13:07:18.505Z,100992
2017-06-02T13:08:21.120Z,106624
2017-06-02T13:09:23.936Z,106816
2017-06-02T13:10:26.695Z,101568
2017-06-02T13:11:29.465Z,96576
2017-06-02T13:12:32.182Z,93248
2017-06-02T13:13:34.909Z,89056
2017-06-02T13:14:37.451Z,86848
2017-06-02T13:15:40.069Z,87648
2017-06-02T13:16:42.622Z,88864
2017-06-02T13:17:45.258Z,89632
2017-06-02T13:18:47.879Z,91104
2017-06-02T13:19:50.489Z,94144
2017-06-02T13:20:53.122Z,95936
2017-06-02T13:21:55.823Z,96672
2017-06-02T13:22:58.527Z,99392
2017-06-02T13:24:01.229Z,104768
2017-06-02T13:25:04.076Z,111072
2017-06-02T13:26:06.688Z,114208
2017-06-02T13:27:09.307Z,111872
2017-06-02T13:28:11.924Z,108192
2017-06-02T13:29:14.560Z,102848
2017-06-02T13:30:17.195Z,97728
2017-06-02T13:31:19.916Z,96032
2017-06-02T13:32:22.634Z,98144
2017-06-02T13:33:25.271Z,100288
2017-06-02T13:34:27.978Z,101088
2017-06-02T13:35:30.696Z,99520
2017-06-02T13:36:33.410Z,96352
2017-06-02T13:37:36.128Z,92352
2017-06-02T13:38:38.797Z,89888
2017-06-02T13:39:41.307Z,89984
2017-06-02T13:40:44.113Z,93024
2017-06-02T13:41:46.655Z,97024
2017-06-02T13:42:49.170Z,102336
2017-06-02T13:43:51.683Z,107776
2017-06-02T13:44:54.194Z,110976
2017-06-02T13:45:56.835Z,111040
2017-06-02T13:46:59.480Z,110784
2017-06-02T13:48:02.341Z,112160
2017-06-02T13:49:04.894Z,113440
2017-06-02T13:50:07.559Z,113600
2017-06-02T13:51:10.181Z,113088
2017-06-02T13:52:12.876Z,111968
2017-06-02T13:53:15.450Z,109888
2017-06-02T13:54:18.069Z,108608
2017-06-02T13:55:21.000Z,108832
2017-06-02T13:56:23.752Z,110208
2017-06-02T13:57:26.352Z,111072
2017-06-02T13:58:29.073Z,110944
2017-06-02T13:59:32.111Z,109472
2017-06-02T14:00:34.715Z,107104
2017-06-02T14:01:37.535Z,104128
2017-06-02T14:02:40.149Z,101120
2017-06-02T14:03:42.877Z,100992
2017-06-02T14:04:46.741Z,103040
2017-06-02T14:05:48.821Z,104608
2017-06-02T14:06:51.601Z,104480
2017-06-02T14:07:55.152Z,103648
2017-06-02T14:08:57.813Z,102368
2017-06-02T14:10:00.694Z,100096
2017-06-02T14:11:03.192Z,97856
2017-06-02T14:12:05.998Z,96736
2017-06-02T14:13:08.729Z,96960
2017-06-02T14:14:11.439Z,97344
2017-06-02T14:15:14.208Z,97376
2017-06-02T14:16:16.976Z,97824
2017-06-02T14:17:19.662Z,98944
2017-06-02T14:18:22.363Z,98688
2017-06-02T14:19:24.959Z,98400
2017-06-02T14:20:27.502Z,98144
2017-06-02T14:21:30.022Z,97376
2017-06-02T14:22:32.602Z,95040
2017-06-02T14:23:35.372Z,92672
2017-06-02T14:24:38.089Z,91456
2017-06-02T14:25:40.735Z,91744
2017-06-02T14:26:43.517Z,93056
2017-06-02T14:27:46.201Z,95264
2017-06-02T14:28:48.755Z,95968
2017-06-02T14:29:51.391Z,94816
2017-06-02T14:30:53.995Z,93728
2017-06-02T14:31:56.599Z,92096
2017-06-02T14:32:59.309Z,91520
2017-06-02T14:34:02.016Z,93664
2017-06-02T14:35:04.769Z,97952
2017-06-02T14:36:07.478Z,101152
2017-06-02T14:37:10.083Z,101120
2017-06-02T14:38:12.808Z,98496
2017-06-02T14:39:15.407Z,94656
2017-06-02T14:40:18.039Z,89696
2017-06-02T14:41:20.653Z,85888
2017-06-02T14:42:23.216Z,84480
2017-06-02T14:43:25.826Z,87136
2017-06-02T14:44:28.437Z,92768
2017-06-02T14:45:31.104Z,100064
2017-06-02T14:46:33.848Z,103648
2017-06-02T14:47:36.467Z,102016
2017-06-02T14:48:39.060Z,96416
2017-06-02T14:49:41.922Z,89248
2017-06-02T14:50:44.634Z,83904
2017-06-02T14:51:47.330Z,82784
2017-06-02T14:52:50.066Z,86240
2017-06-02T14:53:52.671Z,92096
2017-06-02T14:54:55.320Z,97696
2017-06-02T14:55:57.988Z,99680
2017-06-02T14:57:00.698Z,96256
2017-06-02T14:58:03.226Z,91072
2017-06-02T14:59:05.940Z,87328
2017-06-02T15:00:08.702Z,85952
2017-06-02T15:01:11.492Z,87488
2017-06-02T15:02:14.198Z,92672
2017-06-02T15:03:16.821Z,98880
2017-06-02T15:04:19.535Z,103008
2017-06-02T15:05:22.241Z,103200
2017-06-02T15:06:24.973Z,99872
2017-06-02T15:07:27.545Z,95552
2017-06-02T15:08:30.238Z,93440
2017-06-02T15:09:32.804Z,94016
2017-06-02T15:10:35.527Z,95584
2017-06-02T15:11:38.071Z,97472
2017-06-02T15:12:40.591Z,98048
2017-06-02T15:13:43.108Z,98336
2017-06-02T15:14:45.744Z,97472
2017-06-02T15:15:48.341Z,95872
2017-06-02T15:16:50.888Z,95360
2017-06-02T15:17:53.499Z,95840
2017-06-02T15:18:56.111Z,95744
2017-06-02T15:19:58.757Z,95360
2017-06-02T15:21:01.494Z,95488
2017-06-02T15:22:04.041Z,96320
2017-06-02T15:23:06.653Z,96768
2017-06-02T15:24:09.267Z,96736
2017-06-02T15:25:11.908Z,96896
2017-06-02T15:26:14.582Z,96192
2017-06-02T15:27:17.369Z,96128
2017-06-02T15:28:20.076Z,96224
2017-06-02T15:29:22.796Z,95776
2017-06-02T15:30:25.523Z,95936
2017-06-02T15:31:28.242Z,96704
2017-06-02T15:32:30.972Z,97504
2017-06-02T15:33:33.680Z,97728
2017-06-02T15:34:36.376Z,97760
2017-06-02T15:35:39.081Z,97120
2017-06-02T15:36:41.680Z,95584
2017-06-02T15:37:44.238Z,94528
2017-06-02T15:38:46.836Z,94592
2017-06-02T15:39:49.392Z,96832
2017-06-02T15:40:51.957Z,99392
2017-06-02T15:41:54.507Z,101408
2017-06-02T15:42:57.066Z,101760
2017-06-02T15:43:59.694Z,100448
2017-06-02T15:45:02.265Z,98048
2017-06-02T15:46:04.825Z,95648
2017-06-02T15:47:08.760Z,94304
2017-06-02T15:48:11.380Z,93984
2017-06-02T15:49:13.985Z,94080
2017-06-02T15:50:16.781Z,94432
2017-06-02T15:51:19.385Z,94528
2017-06-02T15:52:22.098Z,93728
2017-06-02T15:53:24.815Z,92800
2017-06-02T15:54:29.154Z,91648
2017-06-02T15:55:31.854Z,90688
2017-06-02T15:56:34.405Z,89696
2017-06-02T15:57:36.958Z,88000
2017-06-02T15:58:39.539Z,87424
2017-06-02T15:59:42.099Z,88096
2017-06-02T16:00:44.817Z,88544
2017-06-02T16:01:47.413Z,88768
2017-06-02T16:02:50.057Z,89184
2017-06-02T16:03:52.770Z,90016
2017-06-02T16:04:55.278Z,92032
2017-06-02T16:05:57.848Z,92896
2017-06-02T16:07:00.360Z,92576
2017-06-02T16:08:02.927Z,90496
2017-06-02T16:09:05.544Z,87392
2017-06-02T16:10:08.145Z,84480
2017-06-02T16:11:11.485Z,82112
2017-06-02T16:12:14.091Z,81600
2017-06-02T16:13:16.802Z,81888
2017-06-02T16:14:19.502Z,83136
2017-06-02T16:15:22.232Z,86144
2017-06-02T16:16:24.937Z,88320
2017-06-02T16:17:27.532Z,90592
2017-06-02T16:18:30.220Z,92448
2017-06-02T16:19:32.945Z,92704
2017-06-02T16:20:35.520Z,98784
2017-06-02T16:21:38.230Z,111136
2017-06-02T16:22:40.935Z,115456
2017-06-02T16:23:43.693Z,114688
2017-06-02T16:24:46.386Z,112768
2017-06-02T16:25:48.989Z,110048
2017-06-02T16:26:51.692Z,108032
2017-06-02T16:27:54.294Z,103392
2017-06-02T16:28:56.890Z,100288
2017-06-02T16:29:59.502Z,100672
2017-06-02T16:31:02.122Z,101984
2017-06-02T16:32:04.738Z,101696
2017-06-02T16:33:07.416Z,103712
2017-06-02T16:34:09.973Z,106240
2017-06-02T16:35:12.607Z,107328
2017-06-02T16:36:15.250Z,108992
2017-06-02T16:37:18.230Z,108736
2017-06-02T16:38:23.017Z,107904
2017-06-02T16:39:26.363Z,107264
2017-06-02T16:40:28.925Z,107712
2017-06-02T16:41:31.491Z,109760
2017-06-02T16:42:34.099Z,112448
2017-06-02T16:43:36.669Z,113280
2017-06-02T16:44:39.352Z,112160
2017-06-02T16:45:41.911Z,112288
2017-06-02T16:46:44.541Z,111712
2017-06-02T16:47:47.105Z,109152
2017-06-02T16:48:49.636Z,106752
2017-06-02T16:49:52.165Z,106752
2017-06-02T16:50:54.933Z,106656
2017-06-02T16:51:57.680Z,105120
2017-06-02T16:53:00.433Z,105344
2017-06-02T16:54:03.133Z,103168
2017-06-02T16:55:05.713Z,98272
2017-06-02T16:56:08.433Z,95936
2017-06-02T16:57:11.014Z,94976
2017-06-02T16:58:13.646Z,95040
2017-06-02T16:59:16.358Z,99200
2017-06-02T17:00:18.971Z,104480
2017-06-02T17:01:21.584Z,107904
2017-06-02T17:02:24.350Z,109856
2017-06-02T17:03:26.946Z,111712
2017-06-02T17:04:29.556Z,112224
2017-06-02T17:05:32.291Z,111744
2017-06-02T17:06:34.904Z,112800
2017-06-02T17:07:37.625Z,113312
2017-06-02T17:08:40.353Z,109216
2017-06-02T17:09:43.095Z,89120
2017-06-02T17:10:45.895Z,75840
2017-06-02T17:11:48.604Z,75072
2017-06-02T17:12:51.393Z,73440
2017-06-02T17:13:54.103Z,71520
2017-06-02T17:14:56.816Z,69568
2017-06-02T17:15:59.413Z,68064
2017-06-02T17:17:01.978Z,65856
2017-06-02T17:18:04.719Z,64448
2017-06-02T17:19:07.358Z,65280
2017-06-02T17:20:09.871Z,65728
2017-06-02T17:21:12.570Z,65888
2017-06-02T17:22:15.110Z,66208
2017-06-02T17:23:17.650Z,67072
2017-06-02T17:24:20.273Z,67008
2017-06-02T17:25:22.848Z,66688
2017-06-02T17:26:25.388Z,66368
2017-06-02T17:27:28.133Z,66688
2017-06-02T17:28:30.726Z,67040
2017-06-02T17:29:33.338Z,66624
2017-06-02T17:30:35.946Z,66528
2017-06-02T17:31:38.558Z,65888
2017-06-02T17:32:41.228Z,65344
2017-06-02T17:33:43.830Z,65152
2017-06-02T17:34:46.525Z,65344
2017-06-02T17:35:49.743Z,66176
2017-06-02T17:36:52.447Z,67232
2017-06-02T17:37:55.144Z,54816
2017-06-02T17:38:57.829Z,19136
2017-06-02T17:40:00.513Z,8472
2017-06-02T17:41:03.103Z,8456
2017-06-02T17:42:05.814Z,8412
2017-06-02T17:43:08.404Z,8436
2017-06-02T17:44:11.001Z,8432
2017-06-02T17:45:13.641Z,8424
2017-06-02T17:46:16.270Z,8412
2017-06-02T17:47:19.283Z,8400
2017-06-02T17:48:22.215Z,8388
2017-06-02T17:49:25.291Z,8372
2017-06-02T17:50:28.014Z,8360
2017-06-02T17:51:30.692Z,8348
2017-06-02T17:52:33.386Z,8340
2017-06-02T17:53:35.976Z,8312
2017-06-02T17:54:38.587Z,8300
2017-06-02T17:55:41.133Z,8288
2017-06-02T17:56:43.728Z,8252
2017-06-02T17:57:46.207Z,8248
2017-06-02T17:58:48.703Z,8236
2017-06-02T17:59:51.382Z,8212
2017-06-02T18:00:54.111Z,8196
2017-06-02T18:01:56.984Z,8184
2017-06-02T18:02:59.767Z,8164
2017-06-02T18:04:02.445Z,8160
2017-06-02T18:05:05.185Z,8140
2017-06-02T18:06:07.774Z,8120
2017-06-02T18:07:10.455Z,8096
2017-06-02T18:08:13.050Z,8084
2017-06-02T18:09:15.772Z,8064
2017-06-02T18:10:18.354Z,8052
2017-06-02T18:11:20.900Z,8036
2017-06-02T18:12:23.489Z,8020
2017-06-02T18:13:26.081Z,8004
2017-06-02T18:14:28.689Z,7988
2017-06-02T18:15:31.350Z,7968
2017-06-02T18:16:33.889Z,7956
2017-06-02T18:17:41.448Z,7920
2017-06-02T18:18:44.033Z,7920
2017-06-02T18:19:46.698Z,7900
2017-06-02T18:20:49.281Z,7884
2017-06-02T18:21:52.865Z,7872
2017-06-02T18:22:55.681Z,7852
2017-06-02T18:23:58.219Z,7848
2017-06-02T18:25:00.710Z,7828
2017-06-02T18:26:03.242Z,7812
2017-06-02T18:27:05.794Z,7796
2017-06-02T18:28:08.466Z,7784
2017-06-02T18:29:11.177Z,7764
2017-06-02T18:30:13.762Z,7752
2017-06-02T18:31:16.540Z,7732
2017-06-02T18:32:19.174Z,7716
2017-06-02T18:33:21.880Z,7708
2017-06-02T18:34:24.564Z,7692
2017-06-02T18:35:27.144Z,7676
2017-06-02T18:36:29.729Z,7664
2017-06-02T18:37:32.317Z,7644
2017-06-02T18:38:34.902Z,7632
2017-06-02T18:39:37.596Z,7612
2017-06-02T18:40:40.303Z,7596
2017-06-02T18:41:42.995Z,7580
2017-06-02T18:42:45.704Z,7560
2017-06-02T18:43:48.236Z,7548
2017-06-02T18:44:50.767Z,7528
2017-06-02T18:45:53.351Z,7512
2017-06-02T18:46:55.944Z,7496
2017-06-02T18:47:58.546Z,7484
2017-06-02T18:49:01.125Z,7468
2017-06-02T18:50:03.818Z,7456
2017-06-02T18:51:06.335Z,7440
2017-06-02T18:52:08.999Z,7424
2017-06-02T18:53:11.493Z,7408
2017-06-02T18:54:13.991Z,7400
2017-06-02T18:55:16.712Z,7388
2017-06-02T18:56:19.287Z,7376
2017-06-02T18:57:21.914Z,7356
2017-06-02T18:58:24.516Z,7348
2017-06-02T18:59:27.313Z,7332
2017-06-02T19:00:30.006Z,7320
2017-06-02T19:01:32.759Z,7308
2017-06-02T19:02:35.440Z,7292
2017-06-02T19:03:38.607Z,7272
2017-06-02T19:04:41.280Z,7256
2017-06-02T19:05:43.863Z,7244
2017-06-02T19:06:46.451Z,7232
2017-06-02T19:07:48.987Z,7220
2017-06-02T19:08:51.476Z,7204
2017-06-02T19:09:54.174Z,7192
2017-06-02T19:10:56.742Z,7176
2017-06-02T19:11:59.237Z,7164
2017-06-02T19:13:01.836Z,7152
2017-06-02T19:14:04.376Z,7136
2017-06-02T19:15:07.051Z,7124
2017-06-02T19:16:09.546Z,7116
2017-06-02T19:17:12.257Z,7104
2017-06-02T19:18:14.956Z,7092
2017-06-02T19:19:17.680Z,7080
2017-06-02T19:20:20.386Z,7072
2017-06-02T19:21:22.972Z,7064
2017-06-02T19:22:25.535Z,7052
2017-06-02T19:23:28.247Z,7036
2017-06-02T19:24:30.764Z,7028
2017-06-02T19:25:33.354Z,7016
2017-06-02T19:26:35.937Z,7004
2017-06-02T19:27:38.643Z,6996
2017-06-02T19:28:41.222Z,6984
2017-06-02T19:29:43.919Z,6972
2017-06-02T19:30:46.677Z,6964
2017-06-02T19:31:49.346Z,6952
2017-06-02T19:32:52.042Z,6940
2017-06-02T19:33:54.747Z,6928
2017-06-02T19:34:57.337Z,6920
2017-06-02T19:35:59.925Z,6900
2017-06-02T19:37:02.540Z,6892
2017-06-02T19:38:05.243Z,6880
2017-06-02T19:39:07.825Z,6872
2017-06-02T19:40:10.413Z,6860
2017-06-02T19:41:13.112Z,6848
2017-06-02T19:42:15.657Z,6836
2017-06-02T19:43:18.318Z,6828
2017-06-02T19:44:20.914Z,6816
2017-06-02T19:45:23.461Z,6800
2017-06-02T19:46:26.022Z,6792
2017-06-02T19:47:28.694Z,6784
2017-06-02T19:48:31.217Z,6772
2017-06-02T19:49:33.712Z,6760
2017-06-02T19:50:36.302Z,6752
2017-06-02T19:51:38.844Z,6740
2017-06-02T19:52:41.461Z,6732
2017-06-02T19:53:44.142Z,6724
2017-06-02T19:54:46.828Z,6716
2017-06-02T19:55:49.855Z,6704
2017-06-02T19:56:52.527Z,6700
2017-06-02T19:57:55.226Z,6688
2017-06-02T19:58:57.910Z,6680
2017-06-02T20:00:00.675Z,6668
2017-06-02T20:01:03.444Z,6656
2017-06-02T20:02:06.149Z,6644
2017-06-02T20:03:08.764Z,6632
2017-06-02T20:04:11.463Z,6628
2017-06-02T20:05:14.077Z,6616
2017-06-02T20:06:16.736Z,6604
2017-06-02T20:07:19.424Z,6596
2017-06-02T20:08:22.010Z,6588
2017-06-02T20:09:24.705Z,6576
2017-06-02T20:10:27.418Z,6568
2017-06-02T20:11:30.014Z,6564
2017-06-02T20:12:32.572Z,6556
2017-06-02T20:13:35.110Z,6544
2017-06-02T20:14:37.706Z,6532
2017-06-02T20:15:40.424Z,6532
2017-06-02T20:16:43.079Z,6520
2017-06-02T20:17:45.755Z,6508
2017-06-02T20:18:48.277Z,6500
2017-06-02T20:19:50.988Z,6496
2017-06-02T20:20:53.678Z,6484
2017-06-02T20:21:56.363Z,6476
2017-06-02T20:22:59.083Z,6468
2017-06-02T20:24:01.702Z,6460
2017-06-02T20:25:04.238Z,6448
2017-06-02T20:26:06.846Z,6436
2017-06-02T20:27:09.404Z,6428
2017-06-02T20:28:12.120Z,6416
2017-06-02T20:29:14.790Z,6408
2017-06-02T20:30:17.348Z,6396
2017-06-02T20:31:19.953Z,6392
2017-06-02T20:32:22.573Z,6376
2017-06-02T20:33:25.115Z,6368
2017-06-02T20:34:27.710Z,6356
2017-06-02T20:35:30.363Z,6344
2017-06-02T20:36:32.954Z,6336
2017-06-02T20:37:35.536Z,6324
2017-06-02T20:38:38.170Z,6312
2017-06-02T20:39:40.695Z,6304
2017-06-02T20:40:43.419Z,6292
2017-06-02T20:41:46.197Z,6284
2017-06-02T20:42:48.896Z,6268
2017-06-02T20:43:51.576Z,6264
2017-06-02T20:44:54.162Z,6252
2017-06-02T20:45:56.765Z,6240
2017-06-02T20:46:59.354Z,6232
2017-06-02T20:48:02.048Z,6220
2017-06-02T20:49:04.718Z,6208
2017-06-02T20:50:11.057Z,6200
2017-06-02T20:51:13.753Z,6188
2017-06-02T20:52:16.490Z,6180
2017-06-02T20:53:19.167Z,6168
2017-06-02T20:54:22.572Z,6160
2017-06-02T20:55:25.162Z,6148
2017-06-02T20:56:27.701Z,6136
2017-06-02T20:57:30.233Z,6128
2017-06-02T20:58:32.825Z,6120
2017-06-02T20:59:35.363Z,6108
2017-06-02T21:00:37.859Z,6104
2017-06-02T21:01:40.475Z,6092
2017-06-02T21:02:43.145Z,6080
2017-06-02T21:03:45.731Z,6072
2017-06-02T21:04:48.322Z,6060
2017-06-02T21:05:51.083Z,6052
2017-06-02T21:06:53.652Z,6040
2017-06-02T21:07:57.517Z,6032
2017-06-02T21:09:00.091Z,6020
2017-06-02T21:10:02.743Z,6012
2017-06-02T21:11:05.437Z,6004
2017-06-02T21:12:08.130Z,5988
2017-06-02T21:13:10.714Z,5980
2017-06-02T21:14:13.388Z,5968
2017-06-02T21:15:15.984Z,5960
2017-06-02T21:16:18.627Z,5948
2017-06-02T21:17:21.224Z,5936
2017-06-02T21:18:23.919Z,5924
2017-06-02T21:19:26.607Z,5920
2017-06-02T21:20:29.202Z,5904
2017-06-02T21:21:31.892Z,5896
2017-06-02T21:22:34.479Z,5888
2017-06-02T21:23:37.083Z,5880
2017-06-02T21:24:39.673Z,5864
2017-06-02T21:25:42.263Z,5860
2017-06-02T21:26:44.969Z,5848
2017-06-02T21:27:47.649Z,5844
2017-06-02T21:28:50.230Z,5832
2017-06-02T21:29:52.911Z,5828
2017-06-02T21:30:55.436Z,5820
2017-06-02T21:31:58.030Z,5808
2017-06-02T21:33:00.627Z,5804
2017-06-02T21:34:03.204Z,5796
2017-06-02T21:35:05.786Z,5784
2017-06-02T21:36:08.467Z,5776
2017-06-02T21:37:11.223Z,5772
2017-06-02T21:38:13.778Z,5764
2017-06-02T21:39:16.273Z,5752
2017-06-02T21:40:18.779Z,5748
2017-06-02T21:41:21.282Z,5740
2017-06-02T21:42:23.815Z,5732
2017-06-02T21:43:26.417Z,5720
2017-06-02T21:44:29.158Z,5712
2017-06-02T21:45:31.773Z,5700
2017-06-02T21:46:34.312Z,5692
2017-06-02T21:47:37.021Z,5680
2017-06-02T21:48:39.720Z,5676
2017-06-02T21:49:42.404Z,5664
2017-06-02T21:50:45.126Z,5652
2017-06-02T21:51:47.812Z,5644
2017-06-02T21:52:50.357Z,5628
2017-06-02T21:53:52.951Z,5616
2017-06-02T21:54:55.502Z,5608
2017-06-02T21:55:58.214Z,5596
2017-06-02T21:57:00.971Z,5588
2017-06-02T21:58:03.671Z,5580
2017-06-02T21:59:06.345Z,5568
2017-06-02T22:00:08.928Z,5560
2017-06-02T22:01:11.521Z,5548
2017-06-02T22:02:14.115Z,5536
2017-06-02T22:03:16.854Z,5524
2017-06-02T22:04:19.468Z,5504
2017-06-02T22:05:22.006Z,5492
2017-06-02T22:06:24.597Z,5476
2017-06-02T22:07:27.257Z,5464
2017-06-02T22:08:29.850Z,5448
2017-06-02T22:09:32.448Z,5440
2017-06-02T22:10:35.034Z,5428
2017-06-02T22:11:39.681Z,5416
2017-06-02T22:12:42.213Z,5400
2017-06-02T22:13:44.888Z,5392
2017-06-02T22:14:47.468Z,5376
2017-06-02T22:15:50.068Z,5368
2017-06-02T22:16:52.597Z,5356
2017-06-02T22:17:55.119Z,5348
2017-06-02T22:18:57.678Z,5336
2017-06-02T22:20:00.211Z,5324
2017-06-02T22:21:02.762Z,5312
2017-06-02T22:22:05.374Z,5304
2017-06-02T22:23:08.051Z,5292
2017-06-02T22:24:10.582Z,5284
2017-06-02T22:25:13.286Z,5272
2017-06-02T22:26:15.963Z,5256
2017-06-02T22:27:18.698Z,5252
2017-06-02T22:28:21.374Z,5240
2017-06-02T22:29:24.043Z,5228
2017-06-02T22:30:26.621Z,5220
2017-06-02T22:31:29.363Z,5208
2017-06-02T22:32:31.965Z,5196
2017-06-02T22:33:34.489Z,5184
2017-06-02T22:34:37.031Z,5168
2017-06-02T22:35:39.578Z,5156
2017-06-02T22:36:42.190Z,5140
2017-06-02T22:37:44.921Z,5132
2017-06-02T22:38:47.633Z,5120
2017-06-02T22:39:50.346Z,5104
2017-06-02T22:40:53.084Z,5092
2017-06-02T22:41:55.667Z,5080
2017-06-02T22:42:58.358Z,5068
2017-06-02T22:44:00.939Z,5060
2017-06-02T22:45:03.549Z,5052
2017-06-02T22:46:06.139Z,5040
2017-06-02T22:47:08.702Z,5028
2017-06-02T22:48:11.231Z,5016
2017-06-02T22:49:13.781Z,5008
2017-06-02T22:50:16.472Z,5000
2017-06-02T22:51:19.252Z,4984
2017-06-02T22:52:21.941Z,4968
2017-06-02T22:53:25.026Z,4956
2017-06-02T22:54:27.634Z,4944
2017-06-02T22:55:30.365Z,4936
2017-06-02T22:56:32.964Z,4916
2017-06-02T22:57:35.487Z,4904
2017-06-02T22:58:38.028Z,4888
2017-06-02T22:59:40.556Z,4876
2017-06-02T23:00:43.108Z,4864
2017-06-02T23:01:47.958Z,4852
2017-06-02T23:02:49.653Z,4836
2017-06-02T23:03:52.256Z,4820
2017-06-02T23:04:54.861Z,4804
2017-06-02T23:05:57.482Z,4796
2017-06-02T23:07:00.183Z,4780
2017-06-02T23:08:02.704Z,4764
2017-06-02T23:09:05.303Z,4748
2017-06-02T23:10:07.991Z,4736
2017-06-02T23:11:10.665Z,4720
2017-06-02T23:12:13.293Z,4704
2017-06-02T23:13:17.742Z,4692
2017-06-02T23:14:20.522Z,4676
2017-06-02T23:15:23.184Z,4660
2017-06-02T23:16:25.884Z,4644
2017-06-02T23:17:28.555Z,4632
2017-06-02T23:18:31.288Z,4616
2017-06-02T23:19:33.987Z,4600
2017-06-02T23:20:37.524Z,4584
2017-06-02T23:21:40.206Z,4568
2017-06-02T23:22:42.920Z,4552
2017-06-02T23:23:45.587Z,4536
2017-06-02T23:24:48.140Z,4520
2017-06-02T23:25:50.846Z,4500
2017-06-02T23:26:53.531Z,4484
2017-06-02T23:27:56.019Z,4460
2017-06-02T23:28:58.516Z,4444
2017-06-02T23:30:01.013Z,4408
2017-06-02T23:31:03.555Z,4368
2017-06-02T23:32:06.106Z,4312
2017-06-02T23:33:08.703Z,4264
2017-06-02T23:34:11.297Z,4224
2017-06-02T23:35:13.794Z,4184
2017-06-02T23:36:16.516Z,4160
2017-06-02T23:37:19.227Z,4140
2017-06-02T23:38:21.906Z,4124
2017-06-02T23:39:24.601Z,4100
2017-06-02T23:40:28.413Z,4088
2017-06-02T23:41:30.998Z,4068
2017-06-02T23:42:33.617Z,4056
2017-06-02T23:43:36.311Z,4040
2017-06-02T23:44:38.846Z,4020
2017-06-02T23:45:41.455Z,4004
2017-06-02T23:46:44.200Z,3988
2017-06-02T23:47:46.932Z,3968
2017-06-02T23:48:49.529Z,3956
2017-06-02T23:49:52.119Z,3936
2017-06-02T23:50:54.723Z,3916
2017-06-02T23:51:58.178Z,3900
2017-06-02T23:53:02.357Z,3888
2017-06-02T23:54:04.920Z,3872
2017-06-02T23:55:07.655Z,3856
2017-06-02T23:56:10.218Z,3840
2017-06-02T23:57:12.815Z,3824
2017-06-02T23:58:16.220Z,3804
2017-06-02T23:59:18.931Z,3788
